Time;durP1;ratioP1;P1;durP2;ratioP2;P2;SDS_P1;SDS_P2;PMS_P1;PMS_P2;Temp;Humidity;BMP_temperature;BMP_pressure;BME280_temperature;BME280_humidity;BME280_pressure;Samples;Min_cycle;Max_cycle;Signal;HPM_P1;HPM_P2
2022/04/22 00:01:26;;;;;;;46.17;31.08;;;;;;;9.38;100.00;99252.59;5101246;28;20096;-51
2022/04/22 00:04:10;;;;;;;48.50;31.13;;;;;;;9.42;100.00;99237.66;5100757;28;20043;-52
2022/04/22 00:06:55;;;;;;;46.13;31.00;;;;;;;9.40;100.00;99237.72;5100831;28;20104;-51
2022/04/22 00:09:39;;;;;;;52.13;31.40;;;;;;;9.40;100.00;99229.88;5100620;28;20047;-52
2022/04/22 00:12:24;;;;;;;50.22;31.42;;;;;;;9.30;100.00;99226.69;5100671;28;20056;-51
2022/04/22 00:15:08;;;;;;;52.20;33.10;;;;;;;9.23;100.00;99222.53;5100575;28;20386;-52
2022/04/22 00:17:53;;;;;;;49.03;30.88;;;;;;;9.13;100.00;99226.28;5100873;28;20070;-51
2022/04/22 00:20:37;;;;;;;55.25;32.60;;;;;;;9.06;100.00;99211.69;5101258;28;20040;-51
2022/04/22 00:23:22;;;;;;;50.42;34.40;;;;;;;8.93;100.00;99211.19;5101494;28;20047;-51
2022/04/22 00:26:06;;;;;;;48.22;29.90;;;;;;;9.18;100.00;99211.34;5102651;28;20501;-52
2022/04/22 00:28:52;;;;;;;44.20;28.58;;;;;;;9.32;100.00;99208.31;5104342;28;20096;-52
2022/04/22 00:31:36;;;;;;;47.22;28.88;;;;;;;9.34;100.00;99212.63;5104716;28;20051;-51
2022/04/22 00:34:21;;;;;;;41.65;25.65;;;;;;;9.38;100.00;99196.84;5104328;28;20451;-51
2022/04/22 00:37:05;;;;;;;49.42;29.90;;;;;;;9.08;100.00;99192.47;5104539;28;20058;-51
2022/04/22 00:39:50;;;;;;;42.72;28.75;;;;;;;9.05;100.00;99191.69;5104053;28;20107;-52
2022/04/22 00:42:36;;;;;;;38.08;25.92;;;;;;;9.13;100.00;99182.75;5104277;28;20047;-51
2022/04/22 00:45:21;;;;;;;36.75;25.55;;;;;;;9.31;100.00;99185.72;5088463;28;20055;-51
2022/04/22 00:48:06;;;;;;;39.35;27.90;;;;;;;9.34;100.00;99180.41;5103993;28;20717;-52
2022/04/22 00:50:51;;;;;;;38.17;24.67;;;;;;;9.42;100.00;99180.16;5104185;28;20470;-52
2022/04/22 00:53:41;;;;;;;35.33;24.77;;;;;;;9.46;100.00;99181.81;5103639;28;20055;-51
2022/04/22 00:56:26;;;;;;;38.42;26.15;;;;;;;9.45;100.00;99180.06;5103364;28;20442;-51
2022/04/22 00:59:10;;;;;;;37.85;26.02;;;;;;;9.48;100.00;99179.97;5103353;28;20551;-51
2022/04/22 01:01:54;;;;;;;37.20;25.75;;;;;;;9.49;100.00;99177.34;5102863;28;20051;-51
2022/04/22 01:10:46;;;;;;;35.97;26.15;;;;;;;9.51;100.00;99174.66;5102558;28;20050;-51
2022/04/22 01:13:31;;;;;;;38.35;27.13;;;;;;;9.50;100.00;99173.81;5102497;28;20043;-51
2022/04/22 01:16:16;;;;;;;40.20;26.67;;;;;;;9.49;100.00;99168.59;5103873;27;20590;-51
2022/04/22 01:19:01;;;;;;;39.75;28.98;;;;;;;9.52;100.00;99173.75;5103894;28;20054;-52
2022/04/22 01:21:46;;;;;;;36.50;26.08;;;;;;;9.46;100.00;99171.34;5102952;28;20127;-51
2022/04/22 01:24:31;;;;;;;40.03;25.67;;;;;;;9.48;100.00;99175.59;5102136;28;20647;-50
2022/04/22 01:27:16;;;;;;;36.25;25.08;;;;;;;9.49;100.00;99174.72;5101812;28;20043;-52
2022/04/22 01:30:03;;;;;;;40.42;26.55;;;;;;;9.50;100.00;99173.81;5102800;28;20486;-51
2022/04/22 01:32:54;;;;;;;38.83;26.90;;;;;;;9.49;100.00;99182.56;5102798;28;20470;-51
2022/04/22 01:35:39;;;;;;;36.00;25.25;;;;;;;9.50;100.00;99178.19;5102469;28;20059;-51
2022/04/22 01:38:23;;;;;;;36.08;24.35;;;;;;;9.53;100.00;99178.09;5102992;28;20448;-51
2022/04/22 01:41:08;;;;;;;46.08;28.77;;;;;;;9.47;100.00;99175.66;5101242;28;20108;-51
2022/04/22 01:43:52;;;;;;;46.67;29.00;;;;;;;9.49;100.00;99177.34;5103002;28;20194;-51
2022/04/22 01:46:36;;;;;;;53.38;33.25;;;;;;;9.17;100.00;99167.00;5103484;28;20390;-51
2022/04/22 01:49:21;;;;;;;51.65;33.03;;;;;;;9.21;100.00;99168.59;5102873;28;20486;-51
2022/04/22 01:52:07;;;;;;;51.17;32.35;;;;;;;9.25;100.00;99165.84;5102699;28;20048;-51
2022/04/22 01:54:53;;;;;;;48.60;31.70;;;;;;;9.28;100.00;99151.84;5102735;28;20060;-51
2022/04/22 01:57:38;;;;;;;43.60;29.75;;;;;;;9.37;100.00;99154.19;5102372;28;20058;-52
2022/04/22 02:00:22;;;;;;;46.03;30.58;;;;;;;9.44;100.00;99163.53;5103418;28;20496;-52
2022/04/22 02:03:08;;;;;;;42.50;29.92;;;;;;;9.41;100.00;99163.63;5102354;27;20355;-51
2022/04/22 02:05:52;;;;;;;38.75;26.95;;;;;;;9.47;100.00;99158.22;5086710;28;20133;-51
2022/04/22 02:08:37;;;;;;;39.53;27.58;;;;;;;9.48;100.00;99156.44;5102007;28;20066;-51
2022/04/22 02:11:21;;;;;;;39.13;27.50;;;;;;;9.46;100.00;99148.66;5101845;28;20051;-51
2022/04/22 02:14:05;;;;;;;44.03;28.17;;;;;;;9.32;100.00;99145.59;5100315;28;20216;-52
2022/04/22 02:16:50;;;;;;;38.78;27.08;;;;;;;9.39;100.00;99146.28;5102853;28;20071;-51
2022/04/22 02:19:34;;;;;;;38.03;25.25;;;;;;;9.45;100.00;99143.47;5103525;28;20031;-51
2022/04/22 02:22:18;;;;;;;36.78;26.20;;;;;;;9.49;100.00;99145.09;5102357;28;20043;-52
2022/04/22 02:25:04;;;;;;;41.38;27.23;;;;;;;9.50;100.00;99150.28;5102999;28;20063;-51
2022/04/22 02:30:51;;;;;;;40.83;26.88;;;;;;;9.54;100.00;99157.13;5103456;28;20048;-51
2022/04/22 02:33:39;;;;;;;40.03;26.85;;;;;;;9.48;100.00;99151.22;5102839;28;20149;-51
2022/04/22 02:36:23;;;;;;;39.55;25.02;;;;;;;9.50;100.00;99160.72;5101909;28;20052;-51
2022/04/22 02:39:08;;;;;;;35.75;24.92;;;;;;;9.46;100.00;99161.75;5086896;28;20052;-51
2022/04/22 02:47:59;;;;;;;42.45;27.08;;;;;;;9.29;100.00;99156.16;5102018;28;20044;-51
2022/04/22 02:50:43;;;;;;;36.65;24.85;;;;;;;9.39;100.00;99159.34;5102723;28;20642;-51
2022/04/22 02:53:28;;;;;;;40.28;24.85;;;;;;;9.41;100.00;99166.25;5102121;28;20070;-51
2022/04/22 02:56:12;;;;;;;35.63;24.02;;;;;;;9.41;100.00;99163.63;5101544;28;20044;-51
2022/04/22 02:58:57;;;;;;;36.05;26.42;;;;;;;9.26;100.00;99148.41;5086507;28;20040;-51
2022/04/22 03:01:43;;;;;;;39.00;26.73;;;;;;;9.35;100.00;99153.34;5101097;28;20052;-50
2022/04/22 03:04:27;;;;;;;37.80;25.15;;;;;;;9.39;100.00;99151.50;5101896;28;20048;-52
2022/04/22 03:07:11;;;;;;;38.30;26.20;;;;;;;9.41;100.00;99140.09;5101888;28;20501;-51
2022/04/22 03:09:56;;;;;;;35.50;25.02;;;;;;;9.45;100.00;99140.84;5100690;28;20055;-52
2022/04/22 03:12:42;;;;;;;35.92;25.50;;;;;;;9.45;100.00;99141.72;5101567;28;20154;-51
2022/04/22 03:15:27;;;;;;;37.08;25.25;;;;;;;9.43;100.00;99140.06;5101767;28;20042;-52
2022/04/22 03:18:12;;;;;;;32.95;23.60;;;;;;;9.45;100.00;99143.47;5102097;28;20043;-52
2022/04/22 03:20:58;;;;;;;31.52;22.58;;;;;;;9.45;100.00;99144.31;5101161;28;20043;-51
2022/04/22 03:23:42;;;;;;;32.65;23.95;;;;;;;9.42;100.00;99151.41;5102192;28;20138;-51
2022/04/22 03:26:26;;;;;;;34.25;23.35;;;;;;;9.38;100.00;99150.66;5102491;28;20043;-51
2022/04/22 03:29:11;;;;;;;32.50;22.75;;;;;;;9.39;100.00;99147.13;5101486;28;20426;-51
2022/04/22 03:31:56;;;;;;;37.78;25.80;;;;;;;9.28;100.00;99144.00;5101511;28;20058;-51
2022/04/22 03:34:40;;;;;;;39.65;26.05;;;;;;;9.24;100.00;99140.63;5101739;28;20139;-51
2022/04/22 03:37:24;;;;;;;49.13;32.20;;;;;;;9.11;100.00;99134.91;5101764;28;20070;-51
2022/04/22 03:40:10;;;;;;;49.63;32.95;;;;;;;9.21;100.00;99129.41;5101539;28;20048;-51
2022/04/22 03:42:55;;;;;;;54.22;37.90;;;;;;;9.13;100.00;99127.88;5102642;28;20051;-52
2022/04/22 03:45:39;;;;;;;54.28;36.08;;;;;;;9.09;100.00;99125.41;5101816;28;20145;-51
2022/04/22 03:48:25;;;;;;;45.10;32.15;;;;;;;9.23;100.00;99131.09;5102660;28;20055;-51
2022/04/22 03:51:09;;;;;;;43.00;32.03;;;;;;;9.30;100.00;99135.22;5103342;28;20052;-51
2022/04/22 03:53:54;;;;;;;59.95;39.63;;;;;;;9.07;100.00;99130.69;5086870;28;20047;-51
2022/04/22 03:59:41;;;;;;;62.33;39.85;;;;;;;9.11;100.00;99131.44;5105707;28;20047;-52
2022/04/22 04:02:26;;;;;;;64.75;42.78;;;;;;;8.98;100.00;99124.88;5105486;27;20039;-52
2022/04/22 04:05:10;;;;;;;64.20;41.72;;;;;;;9.05;100.00;99132.47;5105865;28;20047;-51
2022/04/22 04:07:54;;;;;;;68.82;44.40;;;;;;;9.06;100.00;99128.09;5106291;28;20513;-50
2022/04/22 04:16:39;;;;;;;71.45;46.03;;;;;;;9.02;100.00;99132.56;5105491;28;20056;-51
2022/04/22 04:25:30;;;;;;;74.53;46.50;;;;;;;9.07;100.00;99128.06;5104838;28;20028;-51
2022/04/22 04:28:15;;;;;;;75.25;49.13;;;;;;;8.85;100.00;99140.03;5105608;28;20624;-51
2022/04/22 04:30:59;;;;;;;70.18;44.83;;;;;;;9.04;100.00;99132.53;5106312;28;20044;-51
2022/04/22 04:33:44;;;;;;;74.60;45.08;;;;;;;9.13;100.00;99133.13;5084068;28;20059;-51
2022/04/22 04:36:29;;;;;;;77.70;47.90;;;;;;;9.07;100.00;99125.47;5106637;28;20035;-51
2022/04/22 04:39:13;;;;;;;69.90;44.40;;;;;;;9.14;100.00;99126.13;5105297;28;20057;-51
2022/04/22 04:41:58;;;;;;;68.90;43.75;;;;;;;9.29;100.00;99130.00;5105422;27;20520;-51
2022/04/22 04:44:42;;;;;;;71.68;45.15;;;;;;;9.10;100.00;99125.38;5105401;28;20474;-51
2022/04/22 04:47:27;;;;;;;73.93;45.65;;;;;;;9.11;100.00;99129.69;5102104;28;20134;-52
2022/04/22 04:50:12;;;;;;;71.93;44.97;;;;;;;9.15;100.00;99125.22;5103513;28;20069;-52
2022/04/22 04:52:57;;;;;;;69.78;44.83;;;;;;;9.25;100.00;99131.88;5087402;28;20063;-52
2022/04/22 04:55:41;;;;;;;75.28;45.25;;;;;;;9.33;100.00;99134.28;5103603;28;20096;-50
2022/04/22 04:58:26;;;;;;;75.45;47.70;;;;;;;9.19;100.00;99139.88;5103054;28;20847;-51
2022/04/22 05:01:10;;;;;;;69.45;43.85;;;;;;;9.34;100.00;99142.06;5102467;28;20043;-51
2022/04/22 05:03:55;;;;;;;74.65;45.70;;;;;;;9.35;100.00;99142.91;5102409;28;20039;-51
2022/04/22 05:06:40;;;;;;;66.53;42.03;;;;;;;9.52;100.00;99143.25;5100837;28;20055;-52
2022/04/22 05:09:25;;;;;;;64.13;42.03;;;;;;;9.50;100.00;99146.81;5099470;28;20048;-51
2022/04/22 05:12:12;;;;;;;64.75;39.83;;;;;;;9.46;100.00;99140.81;5100809;28;20055;-51
2022/04/22 05:14:57;;;;;;;58.10;39.92;;;;;;;9.45;100.00;99140.84;5100580;28;20039;-51
2022/04/22 05:17:43;;;;;;;58.03;37.90;;;;;;;9.62;100.00;99135.97;5100926;28;20047;-51
2022/04/22 05:20:28;;;;;;;56.67;36.75;;;;;;;9.53;100.00;99134.50;5100717;28;20058;-52
2022/04/22 05:23:13;;;;;;;58.10;36.63;;;;;;;9.72;100.00;99142.63;5100741;27;20043;-51
2022/04/22 05:26:01;;;;;;;55.55;36.08;;;;;;;9.57;100.00;99140.47;5085260;27;20055;-51
2022/04/22 05:28:46;;;;;;;58.28;37.33;;;;;;;9.61;100.00;99136.84;5100895;28;20055;-51
2022/04/22 05:34:33;;;;;;;49.67;33.75;;;;;;;9.45;100.00;99141.72;5101292;27;20376;-52
2022/04/22 05:37:18;;;;;;;56.35;35.60;;;;;;;9.48;100.00;99144.22;5085498;28;20055;-49
2022/04/22 05:40:03;;;;;;;53.22;34.22;;;;;;;9.69;100.00;99141.88;5098863;28;20047;-51
2022/04/22 05:42:49;;;;;;;50.53;32.92;;;;;;;9.82;100.00;99148.41;5100994;27;20469;-52
2022/04/22 05:45:35;;;;;;;50.80;35.30;;;;;;;9.71;100.00;99147.88;5099473;28;20668;-52
2022/04/22 05:48:19;;;;;;;52.00;34.45;;;;;;;9.59;100.00;99134.31;5100472;28;20246;-51
2022/04/22 05:51:04;;;;;;;52.78;33.05;;;;;;;9.86;100.00;99142.16;5100224;28;20470;-52
2022/04/22 05:53:49;;;;;;;51.45;33.45;;;;;;;9.96;100.00;99143.56;5099410;28;20400;-51
2022/04/22 05:56:33;;;;;;;48.13;30.65;;;;;;;10.34;100.00;99136.22;5100813;28;20469;-51
2022/04/22 05:59:17;;;;;;;48.40;32.13;;;;;;;9.90;100.00;99143.78;5100435;28;20168;-51
2022/04/22 06:02:02;;;;;;;47.05;31.63;;;;;;;9.85;100.00;99153.53;5100349;28;20518;-51
2022/04/22 06:04:47;;;;;;;45.55;30.02;;;;;;;10.19;100.00;99161.13;5101314;28;20051;-51
2022/04/22 06:07:32;;;;;;;41.50;29.15;;;;;;;10.06;100.00;99154.59;5100948;28;20051;-52
2022/04/22 06:10:31;;;;;;;40.15;27.23;;;;;;;10.13;100.00;99150.00;5090110;28;20549;-51
2022/04/22 06:13:16;;;;;;;38.40;26.10;;;;;;;10.18;100.00;99151.56;5098716;28;20048;-51
2022/04/22 06:16:00;;;;;;;36.20;24.00;;;;;;;10.27;100.00;99142.59;5099167;28;20595;-51
2022/04/22 06:18:45;;;;;;;35.85;24.52;;;;;;;10.17;100.00;99136.78;5099569;28;20055;-52
2022/04/22 06:21:29;;;;;;;34.63;22.55;;;;;;;10.15;100.00;99149.06;5099416;28;20138;-52
2022/04/22 06:24:14;;;;;;;32.63;22.73;;;;;;;10.33;100.00;99134.50;5097379;28;20055;-51
2022/04/22 06:26:59;;;;;;;31.30;23.52;;;;;;;10.64;100.00;99142.13;5098858;28;20039;-51
2022/04/22 06:29:43;;;;;;;28.52;20.20;;;;;;;10.55;100.00;99147.69;5098117;28;20720;-51
2022/04/22 06:32:28;;;;;;;26.75;20.92;;;;;;;10.69;100.00;99139.34;5097540;27;20059;-51
2022/04/22 06:35:14;;;;;;;28.70;20.55;;;;;;;10.72;100.00;99150.59;5100325;28;20611;-51
2022/04/22 06:38:00;;;;;;;21.90;17.20;;;;;;;10.77;100.00;99150.41;5099977;28;20035;-52
2022/04/22 06:46:53;;;;;;;25.50;17.67;;;;;;;10.65;100.00;99140.38;5102193;28;20121;-51
2022/04/22 06:49:38;;;;;;;23.90;18.13;;;;;;;10.64;100.00;99139.53;5093152;28;20044;-50
2022/04/22 06:52:25;;;;;;;20.85;16.15;;;;;;;10.86;100.00;99141.38;5095859;28;20051;-50
2022/04/22 06:55:11;;;;;;;19.67;15.15;;;;;;;11.12;100.00;99136.00;5096956;27;20054;-51
2022/04/22 06:57:57;;;;;;;22.98;16.90;;;;;;;11.05;100.00;99129.31;5097753;28;21078;-51
2022/04/22 07:00:43;;;;;;;21.33;14.50;;;;;;;11.23;100.00;99136.44;5068898;28;20047;-51
2022/04/22 07:03:28;;;;;;;21.83;16.15;;;;;;;11.29;100.00;99131.91;5096798;28;20051;-51
2022/04/22 07:06:13;;;;;;;19.90;13.88;;;;;;;11.21;100.00;99135.66;5099306;28;20383;-51
2022/04/22 07:08:58;;;;;;;21.35;13.07;;;;;;;11.36;100.00;99146.47;5100225;28;20894;-50
2022/04/22 07:11:44;;;;;;;17.85;13.15;;;;;;;11.26;100.00;99145.13;5100876;28;20089;-52
2022/04/22 07:14:31;;;;;;;20.05;13.00;;;;;;;11.37;100.00;99138.53;5099318;28;20064;-51
2022/04/22 07:17:16;;;;;;;17.27;12.93;;;;;;;11.61;100.00;99147.22;5100143;28;20048;-51
2022/04/22 07:20:09;;;;;;;14.80;11.60;;;;;;;11.38;100.00;99148.13;5100589;28;20047;-50
2022/04/22 07:22:54;;;;;;;18.02;12.75;;;;;;;11.65;100.00;99143.56;5101325;28;20101;-51
2022/04/22 07:25:39;;;;;;;18.65;12.55;;;;;;;11.76;100.00;99145.72;5100387;28;20051;-51
2022/04/22 07:28:27;;;;;;;18.85;13.02;;;;;;;11.83;100.00;99136.72;5100350;28;20504;-50
2022/04/22 07:31:15;;;;;;;15.38;11.43;;;;;;;11.63;100.00;99149.75;5101815;28;20039;-50
2022/04/22 07:34:00;;;;;;;14.45;10.32;;;;;;;11.83;100.00;99149.84;5105418;28;20755;-51
2022/04/22 07:36:45;;;;;;;12.13;9.13;;;;;;;11.88;100.00;99150.53;5106823;28;20520;-51
2022/04/22 07:39:29;;;;;;;24.13;15.93;;;;;;;11.42;100.00;99164.59;5106515;28;20130;-51
2022/04/22 07:42:20;;;;;;;12.15;9.55;;;;;;;11.80;100.00;99154.38;5106546;28;20055;-51
2022/04/22 07:48:11;;;;;;;12.57;9.65;;;;;;;11.72;100.00;99159.91;5107923;28;20059;-50
2022/04/22 07:50:56;;;;;;;13.48;10.35;;;;;;;11.68;100.00;99161.78;5105226;27;20138;-50
2022/04/22 07:53:40;;;;;;;16.05;9.55;;;;;;;11.76;100.00;99148.34;5106450;28;20047;-51
2022/04/22 07:56:25;;;;;;;14.57;10.20;;;;;;;11.94;100.00;99162.56;5106347;28;20051;-51
2022/04/22 07:59:11;;;;;;;14.23;10.90;;;;;;;11.70;100.00;99159.97;5105103;28;20610;-51
2022/04/22 08:01:58;;;;;;;15.30;11.68;;;;;;;11.55;100.00;99162.34;5106507;28;20421;-50
2022/04/22 08:04:44;;;;;;;14.40;10.82;;;;;;;11.79;100.00;99163.13;5105520;28;20040;-52
2022/04/22 08:07:28;;;;;;;14.00;11.65;;;;;;;11.57;100.00;99164.00;5105203;27;20077;-51
2022/04/22 08:10:13;;;;;;;12.57;10.38;;;;;;;11.81;100.00;99180.53;5105787;28;20450;-51
2022/04/22 08:12:58;;;;;;;14.68;10.70;;;;;;;11.86;100.00;99168.13;5105505;27;20044;-51
2022/04/22 08:15:42;;;;;;;13.02;10.02;;;;;;;11.90;100.00;99167.06;5105668;28;20035;-51
2022/04/22 08:18:26;;;;;;;16.83;10.82;;;;;;;11.86;100.00;99169.88;5095172;28;20083;-51
2022/04/22 08:21:11;;;;;;;13.77;11.20;;;;;;;12.01;100.00;99173.66;5105540;27;20397;-51
2022/04/22 08:23:55;;;;;;;17.55;11.65;;;;;;;11.68;100.00;99169.66;5105104;28;20081;-51
2022/04/22 08:26:40;;;;;;;13.88;10.38;;;;;;;11.93;100.00;99174.81;5104210;28;20043;-51
2022/04/22 08:29:24;;;;;;;13.70;10.55;;;;;;;12.31;100.00;99182.88;5103652;27;20105;-50
2022/04/22 08:32:09;;;;;;;14.00;9.93;;;;;;;12.11;100.00;99182.84;5103461;28;20795;-51
2022/04/22 08:34:53;;;;;;;14.30;10.60;;;;;;;12.06;100.00;99185.69;5103854;28;20511;-51
2022/04/22 08:37:38;;;;;;;14.05;11.05;;;;;;;12.24;100.00;99184.03;5102738;28;20039;-50
2022/04/22 08:40:23;;;;;;;14.00;10.18;;;;;;;12.13;100.00;99181.88;5103386;28;20040;-51
2022/04/22 08:43:08;;;;;;;12.95;10.20;;;;;;;12.23;100.00;99179.72;5100579;28;20055;-51
2022/04/22 08:45:52;;;;;;;13.82;10.05;;;;;;;12.28;100.00;99185.63;5103663;28;20048;-50
2022/04/22 08:51:44;;;;;;;13.32;9.15;;;;;;;11.98;100.00;99185.13;5102827;28;20043;-51
2022/04/22 08:54:29;;;;;;;14.77;11.18;;;;;;;11.97;100.00;99182.56;5103036;28;20145;-51
2022/04/22 08:57:14;;;;;;;14.57;10.90;;;;;;;12.17;100.00;99182.59;5103628;28;20051;-51
2022/04/22 09:00:01;;;;;;;14.68;11.75;;;;;;;12.22;100.00;99195.53;5102566;27;20066;-51
2022/04/22 09:02:45;;;;;;;17.02;10.52;;;;;;;12.01;100.00;99178.91;5100108;28;20051;-52
2022/04/22 09:05:31;;;;;;;11.75;10.13;;;;;;;12.04;100.00;99186.66;5094985;28;20055;-51
2022/04/22 09:08:18;;;;;;;14.20;11.27;;;;;;;11.98;100.00;99198.25;5099837;28;20039;-51
2022/04/22 09:11:03;;;;;;;13.95;11.02;;;;;;;12.04;100.00;99189.28;5101100;28;20058;-51
2022/04/22 09:13:48;;;;;;;11.77;9.50;;;;;;;11.92;100.00;99190.63;5103075;28;20043;-51
2022/04/22 09:16:33;;;;;;;24.88;15.20;;;;;;;12.03;100.00;99187.56;5098206;28;20062;-52
2022/04/22 09:19:18;;;;;;;13.43;10.10;;;;;;;11.90;100.00;99177.56;5102625;28;20047;-50
2022/04/22 09:22:03;;;;;;;13.10;9.13;;;;;;;11.80;100.00;99178.81;5103928;28;20055;-51
2022/04/22 09:24:56;;;;;;;10.43;8.57;;;;;;;11.83;100.00;99180.44;5102657;28;20048;-51
2022/04/22 09:27:42;;;;;;;16.38;11.20;;;;;;;11.96;100.00;99179.09;5104663;28;20051;-50
2022/04/22 09:30:26;;;;;;;14.13;10.90;;;;;;;11.69;100.00;99181.00;5103207;28;20482;-51
2022/04/22 09:33:12;;;;;;;14.45;10.60;;;;;;;11.88;100.00;99173.28;5104326;27;20056;-51
2022/04/22 09:42:41;;;;;;;16.02;13.10;;;;;;;11.68;100.00;99161.78;5101350;28;20039;-51
2022/04/22 09:45:35;;;;;;;;;;;;;;;11.71;100.00;99163.44;5103821;28;20330;-51
2022/04/22 09:48:20;;;;;;;15.85;11.25;;;;;;;11.73;100.00;99160.75;5103644;28;19924;-51
2022/04/22 09:51:18;;;;;;;15.82;11.32;;;;;;;11.85;100.00;99165.53;5098948;28;20605;-51
2022/04/22 09:54:05;;;;;;;18.13;14.57;;;;;;;11.93;100.00;99166.09;5101785;27;20842;-51
2022/04/22 09:56:57;;;;;;;12.18;9.82;;;;;;;11.79;100.00;99169.22;5103232;28;20108;-52
2022/04/22 09:59:42;;;;;;;15.02;11.82;;;;;;;11.84;100.00;99166.44;5102530;27;20043;-50
2022/04/22 10:02:29;;;;;;;12.63;9.60;;;;;;;12.05;100.00;99168.19;5103014;28;20055;-51
2022/04/22 10:05:14;;;;;;;15.90;9.88;;;;;;;12.21;100.00;99170.19;5095534;28;20466;-52
2022/04/22 10:08:02;;;;;;;9.45;8.23;;;;;;;12.28;100.00;99163.75;5101081;27;20047;-51
2022/04/22 10:10:47;;;;;;;11.63;9.00;;;;;;;12.06;100.00;99169.94;5086159;28;20092;-50
2022/04/22 10:13:44;;;;;;;13.55;10.60;;;;;;;11.97;100.00;99170.31;5102524;28;20098;-50
2022/04/22 10:16:30;;;;;;;10.75;9.35;;;;;;;11.69;100.00;99168.75;5102231;28;20158;-51
2022/04/22 10:19:15;;;;;;;10.63;8.23;;;;;;;11.89;100.00;99175.88;5103283;28;20112;-51
2022/04/22 10:22:04;;;;;;;13.00;9.45;;;;;;;11.84;100.00;99172.56;5102750;28;20055;-51
2022/04/22 10:24:50;;;;;;;12.23;9.13;;;;;;;11.53;100.00;99166.78;5100400;27;20058;-51
2022/04/22 10:27:34;;;;;;;11.18;8.88;;;;;;;11.59;100.00;99171.78;5080765;28;20058;-50
2022/04/22 10:30:19;;;;;;;13.98;10.77;;;;;;;11.32;100.00;99171.94;5095968;28;20043;-50
2022/04/22 10:33:05;;;;;;;10.88;9.52;;;;;;;11.42;100.00;99175.06;5101357;28;20051;-50
2022/04/22 10:35:56;;;;;;;11.75;9.82;;;;;;;11.35;100.00;99165.75;5100902;28;20055;-51
2022/04/22 10:38:43;;;;;;;19.30;16.15;;;;;;;11.39;100.00;99181.28;5101230;27;20043;-51
2022/04/22 10:41:28;;;;;;;23.48;19.77;;;;;;;11.16;100.00;99163.81;5100799;28;20043;-52
2022/04/22 10:47:41;;;;;;;24.85;18.83;;;;;;;11.60;100.00;99161.25;5100558;28;20047;-50
2022/04/22 10:50:26;;;;;;;21.15;18.23;;;;;;;11.81;100.00;99158.69;5100010;28;20043;-50
2022/04/22 10:53:40;;;;;;;21.58;17.42;;;;;;;12.00;100.00;99166.69;5100960;28;20058;-51
2022/04/22 10:56:28;;;;;;;22.42;18.63;;;;;;;12.04;100.00;99170.91;5101831;28;20660;-51
2022/04/22 10:59:15;;;;;;;20.23;15.98;;;;;;;12.22;100.00;99171.91;5102408;28;20047;-51
2022/04/22 11:02:26;;;;;;;17.77;14.93;;;;;;;12.27;100.00;99162.06;5095246;28;20039;-50
2022/04/22 11:05:20;;;;;;;19.98;14.98;;;;;;;11.98;100.00;99152.78;5101019;28;20035;-50
2022/04/22 11:08:05;;;;;;;;;;;;;;;12.24;100.00;99151.69;5101726;28;20498;-51
2022/04/22 11:10:49;;;;;;;17.25;12.85;;;;;;;12.02;100.00;99160.44;5102738;28;19924;-51
2022/04/22 11:13:38;;;;;;;16.20;13.40;;;;;;;12.24;100.00;99149.06;5097408;28;20056;-51
2022/04/22 11:16:22;;;;;;;17.35;13.98;;;;;;;12.28;100.00;99151.50;5101268;28;20617;-51
2022/04/22 11:19:18;;;;;;;14.25;12.55;;;;;;;12.52;100.00;99157.47;5100476;28;20070;-51
2022/04/22 11:22:06;;;;;;;17.48;13.63;;;;;;;12.49;100.00;99152.34;5101650;28;20059;-51
2022/04/22 11:24:51;;;;;;;15.05;13.05;;;;;;;11.85;100.00;99155.03;5097098;28;20081;-52
2022/04/22 11:27:36;;;;;;;14.30;11.88;;;;;;;11.69;100.00;99154.78;5101442;28;20051;-51
2022/04/22 11:30:22;;;;;;;15.45;13.10;;;;;;;11.80;100.00;99157.84;5101023;28;20047;-51
2022/04/22 11:33:23;;;;;;;15.07;12.18;;;;;;;11.75;100.00;99158.94;5100965;28;20062;-51
2022/04/22 11:36:08;;;;;;;14.55;11.32;;;;;;;11.75;100.00;99161.56;5079629;28;20039;-52
2022/04/22 11:38:55;;;;;;;14.10;11.85;;;;;;;12.06;100.00;99159.44;5100647;28;20111;-51
2022/04/22 11:42:00;;;;;;;13.90;11.52;;;;;;;11.93;100.00;99163.47;5101354;28;20588;-50
2022/04/22 11:45:03;;;;;;;12.48;11.05;;;;;;;11.58;100.00;99165.69;5101537;28;20060;-51
2022/04/22 11:47:48;;;;;;;14.13;11.82;;;;;;;11.66;100.00;99168.00;5102928;28;20085;-50
2022/04/22 11:50:42;;;;;;;11.90;9.88;;;;;;;11.38;100.00;99163.00;5098066;28;20066;-52
2022/04/22 11:53:29;;;;;;;15.32;11.63;;;;;;;11.36;100.00;99175.31;5100814;28;20051;-50
2022/04/22 11:56:22;;;;;;;12.98;10.43;;;;;;;11.22;100.00;99171.44;5102323;28;20070;-50
2022/04/22 11:59:06;;;;;;;14.32;9.43;;;;;;;11.28;100.00;99165.13;5101894;28;20043;-50
2022/04/22 12:08:00;;;;;;;8.07;7.28;;;;;;;11.41;100.00;99160.28;5100971;28;20055;-51
2022/04/22 12:10:47;;;;;;;5.70;5.20;;;;;;;11.34;100.00;99164.91;5101114;28;20410;-50
2022/04/22 12:13:31;;;;;;;4.85;4.45;;;;;;;11.13;100.00;99171.78;5097015;28;20047;-52
2022/04/22 12:16:28;;;;;;;5.20;4.68;;;;;;;10.73;100.00;99178.50;5101496;28;20048;-52
2022/04/22 12:19:12;;;;;;;5.35;4.78;;;;;;;10.79;100.00;99179.16;5104588;28;20775;-51
2022/04/22 12:21:58;;;;;;;4.70;4.10;;;;;;;10.80;100.00;99173.03;5105838;27;20056;-51
2022/04/22 12:25:05;;;;;;;4.43;4.03;;;;;;;10.56;100.00;99175.59;5098128;28;20054;-51
2022/04/22 12:28:11;;;;;;;6.90;4.07;;;;;;;10.60;100.00;99184.22;5100889;28;20100;-51
2022/04/22 12:30:57;;;;;;;4.93;3.20;;;;;;;10.18;100.00;99187.34;5098725;28;20075;-51
2022/04/22 12:33:41;;;;;;;10.70;6.53;;;;;;;10.31;100.00;99186.06;5101523;28;20048;-51
2022/04/22 12:36:27;;;;;;;8.32;4.72;;;;;;;10.42;100.00;99189.16;5094922;28;20505;-51
2022/04/22 12:39:49;;;;;;;3.45;2.70;;;;;;;10.58;100.00;99186.03;5099818;28;20044;-51
2022/04/22 12:42:35;;;;;;;4.78;3.85;;;;;;;10.57;100.00;99179.94;5100320;28;20070;-51
2022/04/22 12:54:42;;;;;;;4.20;3.33;;;;;;;10.87;100.00;99174.50;5101520;28;20062;-52
2022/04/22 12:57:26;;;;;;;11.80;6.07;;;;;;;10.70;100.00;99183.84;5100543;28;20079;-50
2022/04/22 13:00:16;;;;;;;9.00;5.18;;;;;;;10.90;100.00;99180.50;5101483;28;20051;-51
2022/04/22 13:03:04;;;;;;;5.55;3.97;;;;;;;10.98;100.00;99182.81;5101363;28;20085;-50
2022/04/22 13:05:49;;;;;;;4.75;3.60;;;;;;;11.09;100.00;99179.81;5100812;28;20055;-51
2022/04/22 13:08:33;;;;;;;6.05;5.45;;;;;;;11.09;100.00;99185.06;5096038;28;20579;-51
2022/04/22 13:11:18;;;;;;;8.20;4.40;;;;;;;10.99;100.00;99182.78;5082348;28;20055;-51
2022/04/22 13:14:04;;;;;;;3.65;2.72;;;;;;;11.16;100.00;99178.69;5100813;28;20051;-50
2022/04/22 13:16:50;;;;;;;2.92;2.45;;;;;;;11.35;100.00;99178.84;5101150;28;20048;-50
2022/04/22 13:19:34;;;;;;;9.15;4.63;;;;;;;10.93;100.00;99182.16;5100216;28;20056;-51
2022/04/22 13:22:19;;;;;;;5.43;2.60;;;;;;;10.96;100.00;99175.03;5100265;28;20057;-51
2022/04/22 13:25:05;;;;;;;3.28;2.53;;;;;;;11.13;100.00;99184.03;5080987;28;20044;-51
2022/04/22 13:27:49;;;;;;;3.00;2.15;;;;;;;11.19;100.00;99179.41;5098066;27;20055;-52
2022/04/22 13:30:34;;;;;;;3.47;2.97;;;;;;;11.15;100.00;99169.97;5099137;28;20043;-51
2022/04/22 13:33:19;;;;;;;17.13;7.80;;;;;;;11.17;100.00;99162.03;5098967;28;20386;-51
2022/04/22 13:36:04;;;;;;;5.68;3.30;;;;;;;11.09;100.00;99167.56;5098522;28;20055;-51
2022/04/22 13:38:49;;;;;;;4.47;2.55;;;;;;;11.38;100.00;99161.22;5092656;28;20036;-51
2022/04/22 13:41:33;;;;;;;7.15;4.15;;;;;;;11.18;100.00;99156.75;5098396;28;20047;-51
2022/04/22 13:52:21;;;;;;;13.70;6.53;;;;;;;10.84;100.00;99151.91;5098453;28;20035;-51
2022/04/22 13:53:29;;;;;;;3.75;2.53;;;;;;;10.71;100.00;99156.72;5101464;28;20511;-51
2022/04/22 13:56:14;;;;;;;3.42;2.47;;;;;;;10.76;100.00;99152.19;5103265;28;20051;-51
2022/04/22 13:58:58;;;;;;;5.68;3.03;;;;;;;10.76;100.00;99149.56;5087681;28;20044;-51
2022/04/22 14:01:43;;;;;;;4.25;3.58;;;;;;;10.96;100.00;99158.47;5096069;28;20048;-51